createdAt,value
2019-03-17T00:01:15.190Z,9.40
2019-03-17T00:03:58.312Z,9.30
2019-03-17T00:06:29.488Z,9.30
2019-03-17T00:09:00.415Z,9.40
2019-03-17T00:11:31.330Z,9.40
2019-03-17T00:14:01.855Z,9.40
2019-03-17T00:16:33.235Z,9.40
2019-03-17T00:19:03.653Z,9.40
2019-03-17T00:21:34.524Z,9.50
2019-03-17T00:24:04.891Z,9.50
2019-03-17T00:26:35.482Z,9.50
2019-03-17T00:29:05.857Z,9.40
2019-03-17T00:31:36.237Z,9.50
2019-03-17T00:34:06.573Z,9.40
2019-03-17T00:36:36.992Z,9.40
2019-03-17T00:39:07.383Z,9.40
2019-03-17T00:41:38.420Z,9.40
2019-03-17T00:44:08.761Z,9.30
2019-03-17T00:46:39.518Z,9.30
2019-03-17T00:49:09.901Z,9.30
2019-03-17T00:51:41.080Z,9.30
2019-03-17T00:54:11.816Z,9.30
2019-03-17T00:56:42.550Z,9.40
2019-03-17T00:59:13.193Z,9.40
2019-03-17T01:01:43.571Z,9.30
2019-03-17T01:04:14.238Z,9.40
2019-03-17T01:06:45.373Z,9.30
2019-03-17T01:09:16.087Z,9.30
2019-03-17T01:11:46.837Z,9.30
2019-03-17T01:14:17.592Z,9.30
2019-03-17T01:16:48.340Z,9.30
2019-03-17T01:19:18.662Z,9.20
2019-03-17T01:21:49.365Z,9.20
2019-03-17T01:24:19.807Z,9.20
2019-03-17T01:26:50.530Z,9.10
2019-03-17T01:29:21.597Z,9.20
2019-03-17T01:31:51.942Z,9.20
2019-03-17T01:34:22.699Z,9.20
2019-03-17T01:37:13.291Z,9.30
2019-03-17T01:39:44.064Z,9.20
2019-03-17T01:42:14.418Z,9.20
2019-03-17T01:44:45.585Z,9.20
2019-03-17T01:47:15.928Z,9.20
2019-03-17T01:49:46.950Z,9.20
2019-03-17T01:52:17.593Z,9.20
2019-03-17T01:54:48.012Z,9.10
2019-03-17T01:57:18.654Z,9.10
2019-03-17T01:59:52.150Z,9.20
2019-03-17T02:02:22.537Z,9.20
2019-03-17T02:04:53.007Z,9.20
2019-03-17T02:07:23.723Z,9.20
2019-03-17T02:09:54.078Z,9.20
2019-03-17T02:12:24.800Z,9.20
2019-03-17T02:14:55.544Z,9.20
2019-03-17T02:17:26.276Z,9.30
2019-03-17T02:19:57.635Z,9.20
2019-03-17T02:22:28.392Z,9.20
2019-03-17T02:25:00.281Z,9.20
2019-03-17T02:27:31.030Z,9.30
2019-03-17T02:30:01.366Z,9.30
2019-03-17T02:32:32.129Z,9.30
2019-03-17T02:35:02.711Z,9.30
2019-03-17T02:37:33.095Z,9.40
2019-03-17T02:40:05.212Z,9.40
2019-03-17T02:42:35.886Z,9.40
2019-03-17T02:45:09.573Z,9.40
2019-03-17T02:47:41.162Z,9.40
2019-03-17T02:50:11.550Z,9.40
2019-03-17T02:52:41.897Z,9.40
2019-03-17T02:55:12.261Z,9.40
2019-03-17T02:57:43.104Z,9.40
2019-03-17T03:00:13.564Z,9.40
2019-03-17T03:02:43.912Z,9.40
2019-03-17T03:05:14.618Z,9.40
2019-03-17T03:07:45.499Z,9.40
2019-03-17T03:10:16.245Z,9.40
2019-03-17T03:12:46.934Z,9.30
2019-03-17T03:15:17.301Z,9.40
2019-03-17T03:17:47.656Z,9.30
2019-03-17T03:20:18.410Z,9.30
2019-03-17T03:22:48.756Z,9.30
2019-03-17T03:25:19.743Z,9.20
2019-03-17T03:27:50.089Z,9.20
2019-03-17T03:30:22.122Z,9.20
2019-03-17T03:32:52.416Z,9.20
2019-03-17T03:35:22.770Z,9.20
2019-03-17T03:37:53.237Z,9.20
2019-03-17T03:40:23.585Z,9.20
2019-03-17T03:42:54.277Z,9.10
2019-03-17T03:45:25.022Z,9.10
2019-03-17T03:47:55.403Z,9.10
2019-03-17T03:50:26.150Z,9.10
2019-03-17T03:52:56.794Z,9.10
2019-03-17T03:55:27.709Z,9.10
2019-03-17T03:57:58.483Z,9.10
2019-03-17T04:00:28.824Z,9.00
2019-03-17T04:05:57.014Z,8.90
2019-03-17T04:08:27.957Z,8.80
2019-03-17T04:10:58.528Z,8.70
2019-03-17T04:13:29.153Z,8.70
2019-03-17T04:15:59.687Z,8.60
2019-03-17T04:18:30.605Z,8.60
2019-03-17T04:21:01.583Z,8.60
2019-03-17T04:23:32.527Z,8.60
2019-03-17T04:26:03.083Z,8.60
2019-03-17T04:28:33.951Z,8.60
2019-03-17T04:31:04.423Z,8.60
2019-03-17T04:33:34.892Z,8.60
2019-03-17T04:36:05.210Z,8.60
2019-03-17T04:38:35.898Z,8.70
2019-03-17T04:41:09.608Z,8.70
2019-03-17T04:43:39.422Z,8.80
2019-03-17T04:46:29.606Z,8.80
2019-03-17T04:49:01.155Z,8.80
2019-03-17T04:51:31.785Z,8.80
2019-03-17T04:54:02.625Z,8.80
2019-03-17T04:56:33.509Z,8.80
2019-03-17T04:59:11.059Z,8.70
2019-03-17T05:01:41.888Z,8.70
2019-03-17T05:04:13.029Z,8.70
2019-03-17T05:06:52.457Z,8.60
2019-03-17T05:09:16.352Z,8.60
2019-03-17T05:11:47.590Z,8.60
2019-03-17T05:14:19.010Z,8.60
2019-03-17T05:16:49.374Z,8.60
2019-03-17T05:19:20.587Z,8.60
2019-03-17T05:21:50.995Z,8.60
2019-03-17T05:24:21.960Z,8.60
2019-03-17T05:26:52.980Z,8.60
2019-03-17T05:29:24.408Z,8.60
2019-03-17T05:31:55.692Z,8.60
2019-03-17T05:34:26.504Z,8.60
2019-03-17T05:37:05.928Z,8.60
2019-03-17T05:39:29.443Z,8.60
2019-03-17T05:42:00.165Z,8.60
2019-03-17T05:44:31.394Z,8.60
2019-03-17T05:47:02.586Z,8.70
2019-03-17T05:49:33.563Z,8.60
2019-03-17T05:52:04.207Z,8.60
2019-03-17T05:54:35.221Z,8.60
2019-03-17T05:57:05.653Z,8.70
2019-03-17T05:59:36.104Z,8.70
2019-03-17T06:02:07.153Z,8.80
2019-03-17T06:04:37.594Z,8.80
2019-03-17T06:07:17.968Z,8.80
2019-03-17T06:09:41.117Z,8.80
2019-03-17T06:12:12.241Z,8.80
2019-03-17T06:14:42.662Z,8.80
2019-03-17T06:17:13.410Z,8.90
2019-03-17T06:19:44.018Z,8.90
2019-03-17T06:22:16.511Z,9.00
2019-03-17T06:24:46.906Z,9.00
2019-03-17T06:27:17.587Z,9.00
2019-03-17T06:29:48.312Z,9.10
2019-03-17T06:32:18.642Z,9.20
2019-03-17T06:34:49.476Z,9.30
2019-03-17T06:37:30.548Z,9.30
2019-03-17T06:39:53.096Z,9.30
2019-03-17T06:42:23.822Z,9.40
2019-03-17T06:44:54.226Z,9.40
2019-03-17T06:47:24.896Z,9.50
2019-03-17T06:49:56.473Z,9.50
2019-03-17T06:52:27.081Z,9.50
2019-03-17T06:54:57.829Z,9.60
2019-03-17T06:57:28.467Z,9.60
2019-03-17T06:59:58.803Z,9.70
2019-03-17T07:02:29.204Z,9.70
2019-03-17T07:04:59.946Z,9.70
2019-03-17T07:07:42.914Z,9.80
2019-03-17T07:10:02.965Z,9.80
2019-03-17T07:12:33.334Z,9.90
2019-03-17T07:15:05.806Z,9.90
2019-03-17T07:17:36.498Z,9.90
2019-03-17T07:20:15.022Z,10.00
2019-03-17T07:22:45.737Z,10.00
2019-03-17T07:25:16.072Z,10.20
2019-03-17T07:28:06.277Z,10.30
2019-03-17T07:30:37.006Z,10.30
2019-03-17T07:33:07.664Z,10.20
2019-03-17T07:35:38.007Z,10.10
2019-03-17T07:38:08.353Z,10.10
2019-03-17T07:40:38.733Z,10.00
2019-03-17T07:43:09.135Z,10.00
2019-03-17T07:45:39.871Z,10.00
2019-03-17T07:48:10.228Z,10.00
2019-03-17T07:50:40.880Z,10.00
2019-03-17T07:53:11.648Z,10.00
2019-03-17T07:55:42.427Z,10.10
2019-03-17T07:58:12.830Z,10.10
2019-03-17T08:00:43.478Z,10.20
2019-03-17T08:03:14.247Z,10.30
2019-03-17T08:05:44.864Z,10.50
2019-03-17T08:08:15.261Z,10.60
2019-03-17T08:10:46.002Z,10.70
2019-03-17T08:13:16.786Z,10.90
2019-03-17T08:15:47.777Z,11.00
2019-03-17T08:18:19.047Z,11.10
2019-03-17T08:20:49.405Z,11.20
2019-03-17T08:23:21.062Z,11.30
2019-03-17T08:25:51.695Z,11.40
2019-03-17T08:28:22.223Z,11.50
2019-03-17T08:30:53.776Z,11.70
2019-03-17T08:33:24.255Z,11.80
2019-03-17T08:35:55.017Z,11.90
2019-03-17T08:38:25.959Z,12.00
2019-03-17T08:40:56.359Z,12.00
2019-03-17T08:43:27.427Z,12.10
2019-03-17T08:45:58.590Z,12.20
2019-03-17T08:48:28.926Z,12.30
2019-03-17T08:50:59.699Z,12.40
2019-03-17T08:53:30.285Z,12.40
2019-03-17T08:56:00.676Z,12.60
2019-03-17T08:58:31.381Z,12.60
2019-03-17T09:01:01.705Z,12.70
2019-03-17T09:03:32.371Z,12.70
2019-03-17T09:06:03.141Z,12.80
2019-03-17T09:08:35.217Z,13.00
2019-03-17T09:11:06.161Z,13.10
2019-03-17T09:13:36.898Z,13.20
2019-03-17T09:16:07.258Z,13.30
2019-03-17T09:18:38.047Z,13.30
2019-03-17T09:21:08.383Z,13.40
2019-03-17T09:23:39.093Z,13.50
2019-03-17T09:26:09.715Z,13.50
2019-03-17T09:28:40.364Z,13.50
2019-03-17T09:31:10.697Z,13.60
2019-03-17T09:33:53.398Z,13.60
2019-03-17T09:36:23.786Z,13.70
2019-03-17T09:38:54.143Z,13.80
2019-03-17T09:41:24.509Z,13.90
2019-03-17T09:43:54.876Z,13.90
2019-03-17T09:46:25.526Z,13.80
2019-03-17T09:48:56.343Z,13.80
2019-03-17T09:51:26.985Z,13.80
2019-03-17T09:54:17.034Z,14.00
2019-03-17T09:56:47.961Z,14.10
2019-03-17T09:59:19.053Z,14.50
2019-03-17T10:01:49.380Z,14.60
2019-03-17T10:04:20.345Z,14.70
2019-03-17T10:06:51.066Z,14.80
2019-03-17T10:09:21.469Z,14.80
2019-03-17T10:11:52.223Z,14.70
2019-03-17T10:14:22.568Z,14.80
2019-03-17T10:16:52.965Z,14.90
2019-03-17T10:19:23.473Z,14.80
2019-03-17T10:21:54.073Z,14.80
2019-03-17T10:24:24.869Z,14.80
2019-03-17T10:26:55.230Z,14.80
2019-03-17T10:29:25.615Z,14.50
2019-03-17T10:31:56.243Z,14.50
2019-03-17T10:34:26.679Z,14.40
2019-03-17T10:36:57.031Z,14.20
2019-03-17T10:39:27.366Z,14.10
2019-03-17T10:41:58.059Z,14.00
2019-03-17T10:44:28.816Z,13.90
2019-03-17T10:46:59.507Z,13.90
2019-03-17T10:49:30.139Z,13.90
2019-03-17T10:52:00.808Z,13.90
2019-03-17T10:54:31.161Z,13.90
2019-03-17T10:57:02.291Z,14.00
2019-03-17T10:59:32.976Z,14.10
2019-03-17T11:02:03.333Z,14.10
2019-03-17T11:04:34.096Z,14.30
2019-03-17T11:07:04.725Z,14.40
2019-03-17T11:09:35.737Z,14.60
2019-03-17T11:12:06.150Z,14.70
2019-03-17T11:14:36.506Z,14.70
2019-03-17T11:17:06.906Z,14.70
2019-03-17T11:19:37.293Z,14.70
2019-03-17T11:22:07.904Z,14.60
2019-03-17T11:24:38.252Z,14.60
2019-03-17T11:27:08.719Z,14.50
2019-03-17T11:29:39.312Z,14.50
2019-03-17T11:32:09.651Z,14.40
2019-03-17T11:34:40.019Z,14.20
2019-03-17T11:37:10.998Z,14.00
2019-03-17T11:39:41.357Z,13.90
2019-03-17T11:42:11.777Z,13.80
2019-03-17T11:44:42.110Z,13.80
2019-03-17T11:47:12.811Z,13.80
2019-03-17T11:49:45.938Z,13.80
2019-03-17T11:52:15.233Z,13.80
2019-03-17T11:54:45.826Z,13.80
2019-03-17T11:57:16.485Z,13.80
2019-03-17T11:59:46.844Z,13.80
2019-03-17T12:02:26.643Z,13.70
2019-03-17T12:04:51.003Z,13.70
2019-03-17T12:07:21.891Z,13.70
2019-03-17T12:09:52.248Z,13.70
2019-03-17T12:12:23.593Z,13.70
2019-03-17T12:14:54.198Z,13.60
2019-03-17T12:17:24.894Z,13.60
2019-03-17T12:19:55.263Z,13.50
2019-03-17T12:22:25.987Z,13.60
2019-03-17T12:24:56.315Z,13.50
2019-03-17T12:27:27.127Z,13.50
2019-03-17T12:29:57.480Z,13.50
2019-03-17T12:32:28.099Z,13.40
2019-03-17T12:34:58.488Z,13.30
2019-03-17T12:37:28.847Z,13.30
2019-03-17T12:40:02.881Z,13.30
2019-03-17T12:42:31.655Z,13.30
2019-03-17T12:45:02.680Z,13.20
2019-03-17T12:47:33.636Z,13.20
2019-03-17T12:50:06.647Z,13.20
2019-03-17T12:52:37.360Z,13.20
2019-03-17T12:55:08.721Z,13.20
2019-03-17T12:57:39.128Z,13.20
2019-03-17T13:00:23.278Z,13.20
2019-03-17T13:02:53.668Z,13.20
2019-03-17T13:05:24.355Z,13.20
2019-03-17T13:07:54.729Z,13.20
2019-03-17T13:10:25.384Z,13.30
2019-03-17T13:12:55.740Z,13.30
2019-03-17T13:15:26.094Z,13.30
2019-03-17T13:17:56.881Z,13.20
2019-03-17T13:20:29.632Z,13.20
2019-03-17T13:22:59.607Z,13.00
2019-03-17T13:25:29.990Z,12.50
2019-03-17T13:28:00.671Z,11.70
2019-03-17T13:30:31.633Z,11.00
2019-03-17T13:33:02.769Z,10.20
2019-03-17T13:35:33.395Z,9.90
2019-03-17T13:38:03.822Z,9.60
2019-03-17T13:40:34.165Z,9.30
2019-03-17T13:43:04.513Z,9.10
2019-03-17T13:45:34.878Z,9.00
2019-03-17T13:48:05.275Z,9.00
2019-03-17T13:50:35.882Z,9.00
2019-03-17T13:53:06.497Z,8.90
2019-03-17T13:55:37.550Z,8.80
2019-03-17T13:58:12.153Z,8.80
2019-03-17T14:00:42.806Z,8.70
2019-03-17T14:03:13.202Z,8.70
2019-03-17T14:05:43.802Z,8.70
2019-03-17T14:08:14.141Z,8.70
2019-03-17T14:10:44.860Z,8.70
2019-03-17T14:13:15.569Z,8.70
2019-03-17T14:15:46.201Z,8.70
2019-03-17T14:18:16.946Z,8.70
2019-03-17T14:20:47.689Z,8.70
2019-03-17T14:23:18.309Z,8.80
2019-03-17T14:25:49.059Z,8.80
2019-03-17T14:28:19.957Z,8.90
2019-03-17T14:30:50.373Z,8.90
2019-03-17T14:33:21.126Z,9.00
2019-03-17T14:35:51.718Z,9.00
2019-03-17T14:38:22.046Z,9.00
2019-03-17T14:40:55.906Z,9.10
2019-03-17T14:43:25.247Z,9.10
2019-03-17T14:45:55.941Z,9.10
2019-03-17T14:48:26.331Z,9.20
2019-03-17T14:50:57.046Z,9.20
2019-03-17T14:53:27.763Z,9.30
2019-03-17T14:55:58.142Z,9.20
2019-03-17T14:58:28.847Z,9.20
2019-03-17T15:00:59.192Z,9.10
2019-03-17T15:03:30.101Z,9.10
2019-03-17T15:06:00.522Z,9.20
2019-03-17T15:08:30.873Z,9.20
2019-03-17T15:11:06.088Z,9.20
2019-03-17T15:13:53.184Z,9.20
2019-03-17T15:16:23.810Z,9.20
2019-03-17T15:18:54.469Z,9.10
2019-03-17T15:21:25.087Z,9.10
2019-03-17T15:23:55.468Z,9.10
2019-03-17T15:26:26.190Z,9.10
2019-03-17T15:28:57.217Z,9.10
2019-03-17T15:31:27.833Z,9.10
2019-03-17T15:33:58.163Z,9.10
2019-03-17T15:36:28.951Z,9.10
2019-03-17T15:38:59.644Z,9.20
2019-03-17T15:41:30.357Z,9.30
2019-03-17T15:44:01.439Z,9.30
2019-03-17T15:46:31.790Z,9.30
2019-03-17T15:49:02.378Z,9.30
2019-03-17T15:51:32.969Z,9.30
2019-03-17T15:54:03.652Z,9.40
2019-03-17T15:56:34.261Z,9.40
2019-03-17T15:59:04.605Z,9.50
2019-03-17T16:01:35.332Z,9.50
2019-03-17T16:04:06.042Z,9.50
2019-03-17T16:06:36.891Z,9.50
2019-03-17T16:09:08.557Z,9.50
2019-03-17T16:11:39.166Z,9.50
2019-03-17T16:14:09.500Z,9.60
2019-03-17T16:16:40.217Z,9.40
2019-03-17T16:19:10.559Z,9.40
2019-03-17T16:21:41.228Z,9.30
2019-03-17T16:24:12.106Z,9.30
2019-03-17T16:26:42.452Z,9.20
2019-03-17T16:29:13.348Z,9.20
2019-03-17T16:31:43.726Z,9.20
2019-03-17T16:34:14.716Z,9.10
2019-03-17T16:36:45.056Z,9.10
2019-03-17T16:39:15.779Z,9.10
2019-03-17T16:41:46.432Z,9.10
2019-03-17T16:44:17.130Z,9.00
2019-03-17T16:46:47.895Z,9.00
2019-03-17T16:49:18.582Z,8.90
2019-03-17T16:51:48.930Z,8.90
2019-03-17T16:54:19.993Z,8.90
2019-03-17T16:56:50.609Z,8.90
2019-03-17T16:59:20.954Z,8.90
2019-03-17T17:01:51.605Z,8.80
2019-03-17T17:04:22.327Z,8.90
2019-03-17T17:06:53.486Z,8.80
2019-03-17T17:09:24.816Z,8.80
2019-03-17T17:11:57.182Z,8.80
2019-03-17T17:14:27.525Z,8.80
2019-03-17T17:16:57.883Z,8.70
2019-03-17T17:19:28.605Z,8.70
2019-03-17T17:21:59.106Z,8.70
2019-03-17T17:24:30.155Z,8.70
2019-03-17T17:27:00.477Z,8.70
2019-03-17T17:29:31.210Z,8.70
2019-03-17T17:32:01.868Z,8.80
2019-03-17T17:34:32.198Z,8.80
2019-03-17T17:37:02.542Z,8.80
2019-03-17T17:39:33.308Z,8.70
2019-03-17T17:42:08.921Z,8.80
2019-03-17T17:44:36.100Z,8.80
2019-03-17T17:47:06.420Z,8.80
2019-03-17T17:49:36.764Z,8.80
2019-03-17T17:52:07.412Z,8.70
2019-03-17T17:54:38.159Z,8.80
2019-03-17T17:57:08.807Z,8.70
2019-03-17T17:59:39.421Z,8.50
2019-03-17T18:02:10.199Z,8.40
2019-03-17T18:04:41.491Z,8.30
2019-03-17T18:07:12.323Z,8.30
2019-03-17T18:09:43.639Z,8.20
2019-03-17T18:12:20.832Z,8.10
2019-03-17T18:14:46.287Z,8.10
2019-03-17T18:17:17.046Z,8.00
2019-03-17T18:19:47.707Z,8.00
2019-03-17T18:22:18.418Z,8.00
2019-03-17T18:24:49.888Z,7.90
2019-03-17T18:27:20.914Z,7.90
2019-03-17T18:29:51.235Z,7.90
2019-03-17T18:32:21.987Z,7.90
2019-03-17T18:34:52.699Z,7.80
2019-03-17T18:37:23.764Z,7.80
2019-03-17T18:39:54.711Z,7.80
2019-03-17T18:42:32.982Z,7.70
2019-03-17T18:44:57.399Z,7.70
2019-03-17T18:47:27.783Z,7.70
2019-03-17T18:49:58.363Z,7.70
2019-03-17T18:52:28.960Z,7.60
2019-03-17T18:54:59.324Z,7.60
2019-03-17T18:57:29.937Z,7.50
2019-03-17T19:00:04.837Z,7.50
2019-03-17T19:02:35.209Z,7.50
2019-03-17T19:05:09.025Z,7.40
2019-03-17T19:07:39.742Z,7.40
2019-03-17T19:10:15.789Z,7.30
2019-03-17T19:12:46.525Z,7.20
2019-03-17T19:15:18.568Z,7.20
2019-03-17T19:17:49.227Z,7.10
2019-03-17T19:20:21.144Z,7.20
2019-03-17T19:22:51.724Z,7.20
2019-03-17T19:25:24.883Z,7.10
2019-03-17T19:27:55.574Z,7.10
2019-03-17T19:30:26.632Z,7.10
2019-03-17T19:32:57.368Z,7.10
2019-03-17T19:35:28.005Z,7.10
2019-03-17T19:37:58.325Z,7.00
2019-03-17T19:40:29.067Z,7.00
2019-03-17T19:42:59.942Z,7.00
2019-03-17T19:45:30.413Z,6.90
2019-03-17T19:48:01.048Z,6.90
2019-03-17T19:50:31.932Z,6.90
2019-03-17T19:53:02.273Z,6.90
2019-03-17T19:55:34.221Z,6.90
2019-03-17T19:58:04.800Z,6.80
2019-03-17T20:00:35.615Z,6.80
2019-03-17T20:03:07.134Z,6.80
2019-03-17T20:05:37.448Z,6.80
2019-03-17T20:08:07.791Z,6.70
2019-03-17T20:10:38.192Z,6.80
2019-03-17T20:13:11.958Z,6.80
2019-03-17T20:15:41.613Z,6.80
2019-03-17T20:18:12.259Z,6.70
2019-03-17T20:20:42.869Z,6.70
2019-03-17T20:23:13.566Z,6.70
2019-03-17T20:25:44.264Z,6.60
2019-03-17T20:28:14.607Z,6.60
2019-03-17T20:30:44.967Z,6.60
2019-03-17T20:33:15.330Z,6.60
2019-03-17T20:35:46.373Z,6.60
2019-03-17T20:38:17.009Z,6.50
2019-03-17T20:40:47.774Z,6.50
2019-03-17T20:43:29.191Z,6.40
2019-03-17T20:45:50.805Z,6.40
2019-03-17T20:48:21.670Z,6.40
2019-03-17T20:50:52.030Z,6.30
2019-03-17T20:53:22.366Z,6.20
2019-03-17T20:55:53.297Z,6.20
2019-03-17T20:58:23.888Z,6.20
2019-03-17T21:00:54.762Z,6.10
2019-03-17T21:03:25.118Z,6.10
2019-03-17T21:05:55.724Z,6.00
2019-03-17T21:08:26.072Z,6.00
2019-03-17T21:10:57.090Z,5.90
2019-03-17T21:13:27.436Z,5.90
2019-03-17T21:15:57.773Z,5.90
2019-03-17T21:18:28.131Z,5.80
2019-03-17T21:20:59.434Z,5.80
2019-03-17T21:23:30.049Z,5.80
2019-03-17T21:26:00.426Z,5.80
2019-03-17T21:28:30.768Z,5.90
2019-03-17T21:31:20.581Z,5.80
2019-03-17T21:33:50.893Z,5.80
2019-03-17T21:36:21.573Z,5.80
2019-03-17T21:38:51.966Z,5.80
2019-03-17T21:41:22.279Z,5.80
2019-03-17T21:43:59.417Z,5.70
2019-03-17T21:46:25.122Z,5.60
2019-03-17T21:48:55.474Z,5.60
2019-03-17T21:51:26.615Z,5.60
2019-03-17T21:53:56.974Z,5.50
2019-03-17T21:56:28.086Z,5.50
2019-03-17T21:58:58.428Z,5.50
2019-03-17T22:01:29.253Z,5.50
2019-03-17T22:04:00.315Z,5.50
2019-03-17T22:06:31.126Z,5.50
2019-03-17T22:09:02.040Z,5.50
2019-03-17T22:11:32.902Z,5.50
2019-03-17T22:14:12.042Z,5.40
2019-03-17T22:16:35.664Z,5.40
2019-03-17T22:19:06.264Z,5.40
2019-03-17T22:21:36.612Z,5.30
2019-03-17T22:24:07.330Z,5.30
2019-03-17T22:26:38.454Z,5.30
2019-03-17T22:29:08.801Z,5.30
2019-03-17T22:31:39.273Z,5.30
2019-03-17T22:34:09.610Z,5.30
2019-03-17T22:36:40.309Z,5.30
2019-03-17T22:39:12.093Z,5.30
2019-03-17T22:41:42.431Z,5.30
2019-03-17T22:44:23.821Z,5.30
2019-03-17T22:46:45.566Z,5.30
2019-03-17T22:49:16.214Z,5.30
2019-03-17T22:51:46.543Z,5.30
2019-03-17T22:54:17.244Z,5.30
2019-03-17T22:56:47.604Z,5.30
2019-03-17T22:59:18.360Z,5.30
2019-03-17T23:01:49.033Z,5.30
2019-03-17T23:04:22.006Z,5.30
2019-03-17T23:06:51.698Z,5.30
2019-03-17T23:09:22.051Z,5.30
2019-03-17T23:11:52.393Z,5.20
2019-03-17T23:14:22.732Z,5.20
2019-03-17T23:16:53.371Z,5.30
2019-03-17T23:19:24.009Z,5.20
2019-03-17T23:21:54.604Z,5.20
2019-03-17T23:24:25.568Z,5.20
2019-03-17T23:26:56.841Z,5.10
2019-03-17T23:29:27.560Z,5.10
2019-03-17T23:31:58.495Z,5.10
2019-03-17T23:34:28.843Z,5.10
2019-03-17T23:36:59.549Z,5.00
2019-03-17T23:39:29.895Z,5.00
2019-03-17T23:42:00.250Z,5.00
2019-03-17T23:44:30.568Z,5.00
2019-03-17T23:47:01.297Z,5.00
2019-03-17T23:49:31.923Z,5.10
2019-03-17T23:52:02.262Z,5.10
2019-03-17T23:54:33.172Z,5.10
2019-03-17T23:57:03.850Z,5.10
2019-03-17T23:59:34.817Z,4.90
